createdAt,value
2022-10-18T00:01:46.735Z,15.16
2022-10-18T00:04:13.273Z,15.15
2022-10-18T00:06:42.663Z,15.16
2022-10-18T00:09:10.365Z,15.20
2022-10-18T00:11:36.987Z,15.20
2022-10-18T00:14:05.247Z,15.18
2022-10-18T00:16:32.057Z,15.22
2022-10-18T00:18:58.760Z,15.22
2022-10-18T00:21:26.628Z,15.19
2022-10-18T00:23:53.894Z,15.18
2022-10-18T00:26:22.088Z,15.19
2022-10-18T00:28:51.773Z,15.24
2022-10-18T00:31:21.890Z,15.22
2022-10-18T00:33:50.622Z,15.22
2022-10-18T00:36:17.346Z,15.20
2022-10-18T00:38:44.171Z,15.21
2022-10-18T00:41:14.094Z,15.20
2022-10-18T00:43:55.229Z,15.23
2022-10-18T00:46:24.618Z,15.27
2022-10-18T00:48:52.465Z,15.21
2022-10-18T00:51:21.009Z,15.20
2022-10-18T00:53:48.708Z,15.22
2022-10-18T00:56:15.245Z,15.24
2022-10-18T00:58:42.666Z,15.29
2022-10-18T01:01:09.381Z,15.22
2022-10-18T01:03:38.140Z,15.23
2022-10-18T01:06:05.027Z,15.23
2022-10-18T01:08:50.133Z,15.28
2022-10-18T01:11:41.214Z,15.31
2022-10-18T01:14:25.936Z,15.31
2022-10-18T01:17:02.088Z,15.27
2022-10-18T01:20:02.339Z,15.28
2022-10-18T01:22:36.692Z,15.26
2022-10-18T01:25:16.330Z,15.27
2022-10-18T01:27:52.544Z,15.31
2022-10-18T01:30:46.166Z,15.29
2022-10-18T01:33:30.211Z,15.32
2022-10-18T01:36:04.499Z,15.32
2022-10-18T01:38:35.323Z,15.28
2022-10-18T01:41:06.054Z,15.29
2022-10-18T01:43:40.659Z,15.32
2022-10-18T01:46:14.916Z,15.31
2022-10-18T01:48:44.585Z,15.33
2022-10-18T01:51:11.872Z,15.32
2022-10-18T01:53:40.923Z,15.37
2022-10-18T01:56:20.851Z,15.37
2022-10-18T01:58:57.119Z,15.38
2022-10-18T02:01:39.919Z,15.43
2022-10-18T02:04:19.178Z,15.41
2022-10-18T02:06:53.878Z,15.44
2022-10-18T02:09:31.710Z,15.49
2022-10-18T02:12:02.215Z,15.45
2022-10-18T02:14:30.284Z,15.45
2022-10-18T02:17:05.584Z,15.47
2022-10-18T02:19:37.654Z,15.44
2022-10-18T02:22:08.009Z,15.48
2022-10-18T02:24:38.079Z,15.48
2022-10-18T02:27:05.867Z,15.45
2022-10-18T02:29:33.546Z,15.48
2022-10-18T02:32:06.963Z,15.47
2022-10-18T02:34:39.701Z,15.51
2022-10-18T02:37:10.802Z,15.49
2022-10-18T02:39:43.527Z,15.54
2022-10-18T02:42:14.507Z,15.48
2022-10-18T02:44:43.082Z,15.42
2022-10-18T02:47:13.432Z,15.43
2022-10-18T02:49:40.288Z,15.42
2022-10-18T02:52:07.412Z,15.42
2022-10-18T02:54:34.346Z,15.37
2022-10-18T02:57:02.418Z,15.33
2022-10-18T02:59:29.383Z,15.31
2022-10-18T03:01:56.273Z,15.33
2022-10-18T03:04:24.603Z,15.29
2022-10-18T03:06:51.310Z,15.28
2022-10-18T03:09:18.727Z,15.28
2022-10-18T03:11:45.512Z,15.30
2022-10-18T03:14:15.439Z,15.32
2022-10-18T03:16:42.303Z,15.33
2022-10-18T03:19:09.215Z,15.37
2022-10-18T03:21:37.337Z,15.30
2022-10-18T03:24:04.721Z,15.36
2022-10-18T03:26:31.575Z,15.39
2022-10-18T03:28:58.353Z,15.38
2022-10-18T03:31:25.594Z,15.34
2022-10-18T03:33:52.555Z,15.33
2022-10-18T03:36:21.653Z,15.35
2022-10-18T03:38:51.235Z,15.32
2022-10-18T03:41:18.260Z,15.34
2022-10-18T03:43:45.007Z,15.36
2022-10-18T03:46:15.213Z,15.38
2022-10-18T03:48:42.219Z,15.39
2022-10-18T03:51:11.282Z,15.37
2022-10-18T03:53:38.484Z,15.38
2022-10-18T03:56:08.963Z,15.41
2022-10-18T03:58:36.197Z,15.40
2022-10-18T04:01:03.112Z,15.35
2022-10-18T04:03:30.164Z,15.39
2022-10-18T04:05:57.029Z,15.39
2022-10-18T04:08:24.589Z,15.40
2022-10-18T04:10:51.252Z,15.39
2022-10-18T04:13:19.531Z,15.38
2022-10-18T04:15:48.346Z,15.38
2022-10-18T04:18:15.264Z,15.38
2022-10-18T04:20:42.213Z,15.40
2022-10-18T04:23:09.125Z,15.42
2022-10-18T04:25:35.974Z,15.44
2022-10-18T04:28:02.899Z,15.42
2022-10-18T04:30:31.151Z,15.42
2022-10-18T04:32:58.028Z,15.40
2022-10-18T04:35:28.130Z,15.42
2022-10-18T04:37:55.276Z,15.37
2022-10-18T04:40:22.049Z,15.37
2022-10-18T04:42:48.910Z,15.36
2022-10-18T04:45:16.551Z,15.44
2022-10-18T04:47:45.028Z,15.35
2022-10-18T04:50:12.270Z,15.34
2022-10-18T04:52:42.323Z,15.36
2022-10-18T04:55:09.535Z,15.30
2022-10-18T04:57:36.421Z,15.30
2022-10-18T05:00:07.632Z,15.27
2022-10-18T05:02:34.888Z,15.27
2022-10-18T05:05:03.956Z,15.26
2022-10-18T05:07:31.016Z,15.29
2022-10-18T05:10:00.191Z,15.29
2022-10-18T05:12:27.362Z,15.25
2022-10-18T05:14:57.128Z,15.28
2022-10-18T05:17:24.145Z,15.22
2022-10-18T05:19:51.251Z,15.24
2022-10-18T05:22:20.067Z,15.24
2022-10-18T05:24:47.070Z,15.22
2022-10-18T05:27:19.134Z,15.22
2022-10-18T05:29:51.055Z,15.18
2022-10-18T05:32:22.953Z,15.09
2022-10-18T05:34:53.002Z,15.16
2022-10-18T05:37:26.011Z,15.08
2022-10-18T05:39:55.248Z,14.99
2022-10-18T05:42:22.097Z,15.04
2022-10-18T05:44:49.034Z,15.04
2022-10-18T05:47:15.850Z,15.08
2022-10-18T05:49:43.005Z,15.08
2022-10-18T05:52:10.032Z,15.13
2022-10-18T05:54:38.442Z,15.12
2022-10-18T05:57:08.100Z,15.11
2022-10-18T05:59:37.595Z,15.12
2022-10-18T06:02:04.315Z,15.13
2022-10-18T06:04:30.955Z,15.15
2022-10-18T06:06:57.507Z,15.17
2022-10-18T06:09:24.210Z,15.17
2022-10-18T06:11:52.377Z,15.17
2022-10-18T06:14:18.921Z,15.18
2022-10-18T06:16:45.456Z,15.18
2022-10-18T06:19:12.066Z,15.19
2022-10-18T06:21:38.618Z,15.23
2022-10-18T06:24:05.980Z,15.20
2022-10-18T06:26:32.514Z,15.21
2022-10-18T06:29:00.578Z,15.20
2022-10-18T06:31:27.293Z,15.18
2022-10-18T06:33:55.678Z,15.16
2022-10-18T06:36:22.280Z,15.17
2022-10-18T06:38:48.994Z,15.22
2022-10-18T06:41:15.586Z,15.27
2022-10-18T06:43:42.423Z,15.26
2022-10-18T06:46:10.514Z,15.27
2022-10-18T06:48:39.249Z,15.30
2022-10-18T06:51:07.178Z,15.29
2022-10-18T06:53:40.739Z,15.32
2022-10-18T06:56:13.457Z,15.32
2022-10-18T06:58:40.168Z,15.28
2022-10-18T07:01:08.036Z,15.27
2022-10-18T07:03:36.282Z,15.31
2022-10-18T07:06:03.663Z,15.35
2022-10-18T07:08:30.486Z,15.39
2022-10-18T07:10:57.171Z,15.39
2022-10-18T07:13:32.842Z,15.45
2022-10-18T07:16:02.055Z,15.43
2022-10-18T07:18:28.695Z,15.43
2022-10-18T07:20:56.647Z,15.51
2022-10-18T07:23:23.133Z,15.50
2022-10-18T07:25:49.903Z,15.51
2022-10-18T07:28:16.416Z,15.51
2022-10-18T07:30:43.194Z,15.52
2022-10-18T07:33:09.927Z,15.49
2022-10-18T07:35:36.819Z,15.51
2022-10-18T07:38:04.700Z,15.54
2022-10-18T07:40:31.506Z,15.58
2022-10-18T07:42:59.815Z,15.60
2022-10-18T07:45:29.435Z,15.63
2022-10-18T07:47:56.073Z,15.66
2022-10-18T07:50:22.775Z,15.61
2022-10-18T07:52:49.492Z,15.61
2022-10-18T07:55:17.466Z,15.62
2022-10-18T07:57:43.945Z,15.60
2022-10-18T08:00:11.714Z,15.59
2022-10-18T08:02:38.246Z,15.52
2022-10-18T08:05:05.417Z,15.56
2022-10-18T08:07:32.180Z,15.51
2022-10-18T08:09:59.003Z,15.59
2022-10-18T08:12:26.958Z,15.58
2022-10-18T08:14:53.574Z,15.69
2022-10-18T08:17:20.125Z,15.72
2022-10-18T08:19:58.379Z,15.78
2022-10-18T08:22:33.347Z,15.81
2022-10-18T08:24:59.853Z,15.79
2022-10-18T08:27:27.884Z,15.82
2022-10-18T08:29:54.689Z,15.81
2022-10-18T08:32:21.411Z,15.76
2022-10-18T08:34:47.944Z,15.75
2022-10-18T08:37:14.521Z,15.71
2022-10-18T08:39:41.044Z,15.66
2022-10-18T08:42:41.521Z,15.71
2022-10-18T08:45:29.514Z,15.73
2022-10-18T08:47:57.793Z,15.70
2022-10-18T08:50:29.583Z,15.70
2022-10-18T08:53:02.977Z,15.65
2022-10-18T08:55:33.877Z,15.68
2022-10-18T08:58:02.480Z,15.77
2022-10-18T09:00:33.930Z,15.76
2022-10-18T09:03:16.627Z,15.85
2022-10-18T09:05:50.185Z,15.83
2022-10-18T09:08:31.943Z,15.81
2022-10-18T09:11:07.200Z,15.85
2022-10-18T09:13:59.050Z,15.84
2022-10-18T09:16:34.520Z,15.80
2022-10-18T09:19:17.184Z,15.87
2022-10-18T09:21:51.602Z,15.93
2022-10-18T09:24:25.771Z,16.07
2022-10-18T09:26:57.829Z,16.16
2022-10-18T09:29:40.625Z,16.24
2022-10-18T09:32:26.790Z,16.26
2022-10-18T09:34:57.280Z,16.35
2022-10-18T09:37:27.235Z,16.34
2022-10-18T09:40:02.834Z,16.54
2022-10-18T09:42:34.824Z,16.56
2022-10-18T09:45:06.616Z,16.79
2022-10-18T09:47:37.919Z,16.52
2022-10-18T09:50:19.438Z,16.45
2022-10-18T09:52:54.691Z,16.38
2022-10-18T09:55:26.402Z,16.35
2022-10-18T09:57:56.315Z,16.31
2022-10-18T10:00:28.495Z,16.24
2022-10-18T10:02:55.097Z,16.34
2022-10-18T10:05:21.629Z,16.37
2022-10-18T10:07:48.905Z,16.43
2022-10-18T10:10:20.845Z,16.55
2022-10-18T10:12:48.512Z,16.53
2022-10-18T10:15:20.662Z,16.57
2022-10-18T10:17:56.223Z,16.89
2022-10-18T10:20:25.370Z,16.66
2022-10-18T10:22:52.823Z,16.63
2022-10-18T10:25:23.240Z,16.60
2022-10-18T10:27:50.412Z,16.59
2022-10-18T10:30:27.744Z,16.65
2022-10-18T10:32:56.638Z,16.53
2022-10-18T10:35:35.508Z,16.59
2022-10-18T10:38:23.209Z,16.64
2022-10-18T10:40:50.321Z,17.14
2022-10-18T10:43:38.689Z,17.93
2022-10-18T10:46:08.767Z,19.74
2022-10-18T10:48:47.006Z,21.60
2022-10-18T10:51:16.127Z,22.73
2022-10-18T10:53:45.722Z,23.54
2022-10-18T10:56:24.831Z,24.76
2022-10-18T10:58:52.935Z,23.79
2022-10-18T11:01:29.177Z,22.65
2022-10-18T11:04:00.291Z,22.24
2022-10-18T11:06:35.218Z,22.50
2022-10-18T11:09:05.233Z,22.26
2022-10-18T11:11:34.891Z,21.51
2022-10-18T11:14:26.289Z,21.33
2022-10-18T11:17:01.176Z,21.24
2022-10-18T11:19:39.827Z,20.92
2022-10-18T11:22:12.652Z,20.52
2022-10-18T11:24:39.353Z,20.35
2022-10-18T11:27:14.234Z,20.20
2022-10-18T11:29:54.303Z,20.23
2022-10-18T11:32:30.785Z,20.07
2022-10-18T11:35:28.062Z,20.22
2022-10-18T11:38:06.280Z,20.04
2022-10-18T11:40:46.436Z,20.42
2022-10-18T11:43:18.938Z,20.51
2022-10-18T11:45:55.402Z,20.41
2022-10-18T11:48:45.158Z,20.18
2022-10-18T11:51:34.066Z,19.89
2022-10-18T11:54:32.884Z,19.77
2022-10-18T11:57:12.673Z,19.75
2022-10-18T11:59:54.065Z,19.86
2022-10-18T12:02:41.257Z,19.74
2022-10-18T12:05:25.399Z,19.75
2022-10-18T12:08:02.244Z,19.83
2022-10-18T12:10:52.816Z,19.62
2022-10-18T12:13:23.110Z,19.43
2022-10-18T12:15:51.201Z,19.53
2022-10-18T12:18:21.659Z,19.60
2022-10-18T12:20:51.433Z,19.59
2022-10-18T12:23:29.182Z,19.55
2022-10-18T12:26:01.927Z,19.48
2022-10-18T12:28:37.706Z,19.50
2022-10-18T12:31:13.517Z,19.48
2022-10-18T12:33:44.040Z,19.47
2022-10-18T12:36:28.077Z,19.69
2022-10-18T12:38:59.932Z,19.69
2022-10-18T12:41:28.765Z,19.92
2022-10-18T12:44:00.638Z,20.25
2022-10-18T12:46:42.567Z,20.80
2022-10-18T12:49:12.585Z,20.47
2022-10-18T12:51:50.306Z,20.55
2022-10-18T12:54:22.394Z,20.50
2022-10-18T12:56:49.035Z,20.31
2022-10-18T12:59:49.098Z,20.44
2022-10-18T13:02:30.890Z,20.24
2022-10-18T13:07:38.375Z,19.68
2022-10-18T13:10:36.451Z,19.42
2022-10-18T13:13:39.748Z,19.19
2022-10-18T13:16:23.834Z,19.02
2022-10-18T13:18:54.263Z,18.93
2022-10-18T13:21:29.844Z,18.89
2022-10-18T13:24:33.265Z,19.09
2022-10-18T13:27:34.947Z,19.04
2022-10-18T13:30:18.708Z,19.10
2022-10-18T13:32:53.830Z,19.20
2022-10-18T13:35:58.753Z,19.80
2022-10-18T13:38:35.249Z,20.04
2022-10-18T13:41:03.182Z,19.96
2022-10-18T13:44:23.257Z,20.16
2022-10-18T13:47:10.993Z,20.01
2022-10-18T13:49:49.090Z,19.78
2022-10-18T13:52:24.004Z,19.79
2022-10-18T13:55:01.333Z,19.73
2022-10-18T13:57:41.640Z,19.74
2022-10-18T14:00:48.357Z,19.52
2022-10-18T14:03:56.081Z,19.21
2022-10-18T14:06:25.289Z,18.89
2022-10-18T14:08:57.885Z,19.18
2022-10-18T14:11:30.203Z,19.18
2022-10-18T14:14:06.368Z,19.60
2022-10-18T14:16:40.205Z,19.75
2022-10-18T14:19:19.925Z,19.88
2022-10-18T14:21:53.970Z,19.86
2022-10-18T14:24:25.257Z,19.73
2022-10-18T14:27:17.468Z,19.69
2022-10-18T14:29:44.828Z,19.44
2022-10-18T14:32:23.956Z,19.36
2022-10-18T14:34:50.762Z,19.15
2022-10-18T14:37:25.859Z,19.10
2022-10-18T14:39:52.500Z,18.95
2022-10-18T14:42:21.208Z,18.92
2022-10-18T14:44:51.786Z,18.92
2022-10-18T14:47:23.752Z,18.79
2022-10-18T14:49:51.758Z,18.74
2022-10-18T14:52:25.371Z,18.67
2022-10-18T14:54:55.129Z,18.68
2022-10-18T14:57:24.934Z,18.77
2022-10-18T14:59:54.409Z,18.82
2022-10-18T15:02:24.821Z,18.80
2022-10-18T15:04:57.771Z,18.75
2022-10-18T15:07:25.186Z,18.61
2022-10-18T15:09:52.167Z,18.59
2022-10-18T15:12:19.437Z,18.59
2022-10-18T15:14:47.665Z,18.51
2022-10-18T15:17:18.429Z,18.40
2022-10-18T15:19:59.342Z,18.32
2022-10-18T15:22:32.401Z,18.03
2022-10-18T15:25:17.329Z,17.97
2022-10-18T15:27:46.832Z,17.75
2022-10-18T15:30:18.329Z,17.59
2022-10-18T15:32:50.854Z,17.54
2022-10-18T15:35:26.166Z,17.43
2022-10-18T15:37:54.677Z,17.32
2022-10-18T15:40:34.741Z,17.18
2022-10-18T15:43:03.335Z,17.06
2022-10-18T15:45:36.465Z,17.00
2022-10-18T15:48:18.093Z,16.94
2022-10-18T15:50:48.011Z,16.82
2022-10-18T15:53:25.334Z,16.74
2022-10-18T15:55:53.047Z,16.65
2022-10-18T15:58:22.710Z,16.62
2022-10-18T16:00:50.587Z,16.53
2022-10-18T16:03:19.221Z,16.50
2022-10-18T16:05:48.020Z,16.36
2022-10-18T16:08:26.916Z,16.31
2022-10-18T16:10:54.712Z,16.25
2022-10-18T16:13:25.183Z,16.04
2022-10-18T16:15:52.901Z,15.96
2022-10-18T16:18:25.558Z,15.91
2022-10-18T16:20:53.967Z,15.81
2022-10-18T16:23:22.834Z,15.72
2022-10-18T16:26:12.535Z,15.69
2022-10-18T16:28:40.592Z,15.54
2022-10-18T16:31:10.224Z,15.48
2022-10-18T16:33:37.739Z,15.46
2022-10-18T16:36:42.480Z,15.37
2022-10-18T16:39:14.951Z,15.26
2022-10-18T16:41:42.438Z,15.18
2022-10-18T16:44:12.619Z,15.11
2022-10-18T16:46:40.499Z,14.92
2022-10-18T16:49:17.566Z,14.90
2022-10-18T16:51:48.322Z,14.76
2022-10-18T16:54:16.630Z,14.60
2022-10-18T16:56:43.395Z,14.60
2022-10-18T16:59:27.148Z,14.45
2022-10-18T17:01:54.063Z,14.34
2022-10-18T17:04:20.917Z,14.33
2022-10-18T17:06:49.440Z,14.23
2022-10-18T17:09:16.482Z,14.17
2022-10-18T17:11:43.460Z,14.04
2022-10-18T17:14:10.368Z,13.98
2022-10-18T17:16:40.039Z,13.94
2022-10-18T17:19:11.725Z,13.80
2022-10-18T17:21:38.865Z,13.77
2022-10-18T17:24:07.360Z,13.64
2022-10-18T17:26:34.827Z,13.62
2022-10-18T17:29:04.054Z,13.42
2022-10-18T17:31:35.271Z,13.60
2022-10-18T17:34:05.525Z,13.48
2022-10-18T17:36:34.920Z,13.45
2022-10-18T17:39:06.947Z,13.35
2022-10-18T17:41:37.043Z,13.27
2022-10-18T17:44:07.345Z,13.34
2022-10-18T17:46:35.621Z,13.16
2022-10-18T17:49:04.035Z,13.08
2022-10-18T17:51:34.863Z,13.06
2022-10-18T17:54:03.137Z,13.01
2022-10-18T17:56:35.011Z,12.95
2022-10-18T17:59:02.469Z,12.98
2022-10-18T18:01:30.106Z,12.91
2022-10-18T18:03:58.488Z,12.76
2022-10-18T18:06:30.850Z,12.75
2022-10-18T18:09:07.931Z,12.74
2022-10-18T18:11:38.491Z,12.69
2022-10-18T18:14:06.170Z,12.61
2022-10-18T18:16:32.965Z,12.57
2022-10-18T18:19:00.243Z,12.41
2022-10-18T18:21:27.921Z,12.51
2022-10-18T18:24:00.287Z,12.45
2022-10-18T18:26:33.311Z,12.36
2022-10-18T18:31:34.352Z,12.47
2022-10-18T18:34:06.380Z,12.35
2022-10-18T18:36:36.015Z,12.40
2022-10-18T18:39:03.854Z,12.30
2022-10-18T18:41:31.340Z,12.23
2022-10-18T18:44:05.867Z,12.23
2022-10-18T18:46:35.115Z,12.13
2022-10-18T18:49:02.090Z,12.06
2022-10-18T18:51:29.408Z,12.02
2022-10-18T18:53:56.467Z,12.03
2022-10-18T18:56:26.119Z,12.14
2022-10-18T18:58:54.230Z,11.98
2022-10-18T19:01:24.630Z,11.95
2022-10-18T19:03:56.342Z,11.92
2022-10-18T19:06:25.321Z,11.99
2022-10-18T19:08:53.379Z,11.79
2022-10-18T19:11:23.342Z,11.89
2022-10-18T19:13:53.363Z,11.89
2022-10-18T19:16:25.038Z,11.87
2022-10-18T19:18:53.841Z,11.80
2022-10-18T19:21:21.077Z,11.85
2022-10-18T19:23:48.063Z,11.77
2022-10-18T19:26:24.936Z,11.76
2022-10-18T19:28:51.961Z,11.79
2022-10-18T19:31:19.314Z,12.13
2022-10-18T19:33:55.650Z,11.91
2022-10-18T19:36:27.809Z,11.65
2022-10-18T19:38:54.449Z,11.83
2022-10-18T19:41:21.386Z,11.53
2022-10-18T19:43:48.515Z,11.52
2022-10-18T19:46:15.538Z,11.48
2022-10-18T19:48:42.557Z,11.46
2022-10-18T19:51:15.553Z,11.49
2022-10-18T19:53:46.346Z,11.56
2022-10-18T19:56:18.002Z,11.45
2022-10-18T19:58:45.278Z,11.34
2022-10-18T20:01:12.786Z,11.33
2022-10-18T20:03:40.020Z,11.28
2022-10-18T20:06:08.262Z,11.23
2022-10-18T20:08:37.434Z,11.20
2022-10-18T20:11:06.638Z,11.20
2022-10-18T20:13:34.751Z,11.19
2022-10-18T20:16:02.794Z,11.12
2022-10-18T20:18:29.842Z,11.09
2022-10-18T20:20:58.063Z,11.06
2022-10-18T20:23:24.959Z,11.11
2022-10-18T20:26:01.237Z,11.05
2022-10-18T20:28:28.283Z,11.10
2022-10-18T20:31:04.148Z,11.13
2022-10-18T20:33:31.365Z,11.08
2022-10-18T20:36:02.306Z,11.08
2022-10-18T20:38:30.938Z,11.15
2022-10-18T20:41:04.067Z,11.24
2022-10-18T20:43:31.052Z,11.22
2022-10-18T20:45:58.290Z,11.17
2022-10-18T20:48:25.596Z,11.24
2022-10-18T20:50:53.089Z,11.15
2022-10-18T20:53:20.810Z,11.11
2022-10-18T20:55:47.770Z,11.09
2022-10-18T20:58:16.303Z,11.04
2022-10-18T21:00:43.032Z,10.98
2022-10-18T21:03:09.951Z,10.88
2022-10-18T21:05:36.792Z,10.85
2022-10-18T21:08:04.036Z,10.86
2022-10-18T21:10:30.720Z,10.88
2022-10-18T21:12:57.574Z,10.76
2022-10-18T21:15:25.999Z,10.82
2022-10-18T21:17:52.901Z,10.67
2022-10-18T21:20:19.665Z,10.68
2022-10-18T21:22:46.611Z,10.75
2022-10-18T21:25:13.504Z,10.65
2022-10-18T21:27:40.621Z,10.86
2022-10-18T21:30:08.288Z,10.80
2022-10-18T21:32:36.698Z,10.86
2022-10-18T21:35:03.925Z,10.74
2022-10-18T21:37:31.010Z,10.65
2022-10-18T21:39:57.752Z,10.59
2022-10-18T21:42:24.809Z,10.60
2022-10-18T21:44:51.613Z,10.68
2022-10-18T21:47:18.571Z,10.64
2022-10-18T21:49:46.682Z,10.55
2022-10-18T21:52:13.572Z,10.44
2022-10-18T21:54:40.340Z,10.29
2022-10-18T21:57:07.139Z,10.21
2022-10-18T21:59:33.932Z,10.26
2022-10-18T22:02:00.717Z,10.24
2022-10-18T22:04:27.436Z,10.21
2022-10-18T22:06:55.565Z,10.35
2022-10-18T22:09:22.377Z,10.36
2022-10-18T22:11:52.320Z,10.16
2022-10-18T22:14:19.837Z,10.13
2022-10-18T22:16:46.757Z,10.09
2022-10-18T22:19:13.682Z,9.91
2022-10-18T22:21:40.564Z,9.96
2022-10-18T22:24:09.844Z,10.19
2022-10-18T22:26:38.414Z,10.02
2022-10-18T22:29:07.413Z,9.95
2022-10-18T22:31:36.355Z,9.89
2022-10-18T22:34:05.396Z,9.96
2022-10-18T22:36:33.218Z,9.97
2022-10-18T22:39:00.011Z,9.69
2022-10-18T22:41:28.331Z,9.78
2022-10-18T22:44:35.556Z,9.81
2022-10-18T22:47:02.611Z,9.60
2022-10-18T22:49:29.323Z,9.77
2022-10-18T22:51:56.120Z,9.70
2022-10-18T22:54:23.061Z,9.62
2022-10-18T22:56:50.007Z,9.60
2022-10-18T22:59:16.829Z,9.56
2022-10-18T23:01:45.788Z,9.46
2022-10-18T23:04:12.584Z,9.69
2022-10-18T23:06:40.323Z,9.57
2022-10-18T23:09:10.268Z,9.69
2022-10-18T23:11:37.741Z,9.55
2022-10-18T23:14:06.152Z,9.64
2022-10-18T23:16:33.388Z,9.67
2022-10-18T23:19:01.495Z,9.63
2022-10-18T23:21:29.095Z,9.57
2022-10-18T23:23:57.278Z,9.57
2022-10-18T23:26:26.412Z,9.56
2022-10-18T23:28:54.706Z,9.58
2022-10-18T23:31:24.173Z,9.51
2022-10-18T23:33:53.108Z,9.55
2022-10-18T23:36:22.395Z,9.53
2022-10-18T23:38:50.192Z,9.52
2022-10-18T23:41:18.070Z,9.43
2022-10-18T23:43:46.184Z,9.51
2022-10-18T23:46:14.572Z,9.31
2022-10-18T23:48:41.366Z,9.31
2022-10-18T23:51:09.041Z,9.51
2022-10-18T23:53:37.549Z,9.53
2022-10-18T23:56:06.532Z,9.54
2022-10-18T23:58:34.760Z,9.56
